Terminal Aerodrome Forecast
Issued by NWS Quad Cities IA IL

Home | Current Version | Previous Version | Text Only | Print | Product List | Glossary On
Versions: 1 2 3 4 5 6 7 8 9 10 11 12 13 14 15 16
000
FTUS43 KDVN 302300
TAFMLI
TAF
KMLI 302325Z 3100/3124 31009KT P6SM FEW060
     FM310130 30003KT P6SM SKC
     FM311000 28003KT 6SM BR FEW010
     FM311500 27006KT P6SM FEW045=

USA.gov is the U.S. government's official web portal to all federal, state and local government web resources and services.